sensor_id;sensor_type;location;lat;lon;timestamp;pressure;altitude;pressure_sealevel;temperature
18219;BMP180;9234;49.344;11.120;2023-02-28T00:01:46;98286.00;;;-2.20
18219;BMP180;9234;49.344;11.120;2023-02-28T00:04:14;98286.00;;;-2.20
18219;BMP180;9234;49.344;11.120;2023-02-28T00:06:43;98282.00;;;-2.20
18219;BMP180;9234;49.344;11.120;2023-02-28T00:09:12;98284.00;;;-2.10
18219;BMP180;9234;49.344;11.120;2023-02-28T00:11:40;98286.00;;;-2.10
18219;BMP180;9234;49.344;11.120;2023-02-28T00:14:08;98291.00;;;-2.10
18219;BMP180;9234;49.344;11.120;2023-02-28T00:16:36;98291.00;;;-2.00
18219;BMP180;9234;49.344;11.120;2023-02-28T00:19:05;98274.00;;;-2.10
18219;BMP180;9234;49.344;11.120;2023-02-28T00:21:33;98295.00;;;-2.00
18219;BMP180;9234;49.344;11.120;2023-02-28T00:24:07;98280.00;;;-2.00
18219;BMP180;9234;49.344;11.120;2023-02-28T00:26:35;98297.00;;;-2.00
18219;BMP180;9234;49.344;11.120;2023-02-28T00:29:03;98291.00;;;-2.00
18219;BMP180;9234;49.344;11.120;2023-02-28T00:31:31;98288.00;;;-2.00
18219;BMP180;9234;49.344;11.120;2023-02-28T00:34:00;98280.00;;;-1.90
18219;BMP180;9234;49.344;11.120;2023-02-28T00:36:28;98288.00;;;-1.90
18219;BMP180;9234;49.344;11.120;2023-02-28T00:38:56;98284.00;;;-1.90
18219;BMP180;9234;49.344;11.120;2023-02-28T00:41:28;98267.00;;;-1.90
18219;BMP180;9234;49.344;11.120;2023-02-28T00:43:57;98278.00;;;-1.90
18219;BMP180;9234;49.344;11.120;2023-02-28T00:46:25;98279.00;;;-1.90
18219;BMP180;9234;49.344;11.120;2023-02-28T00:48:53;98279.00;;;-1.80
18219;BMP180;9234;49.344;11.120;2023-02-28T00:51:21;98280.00;;;-1.80
18219;BMP180;9234;49.344;11.120;2023-02-28T00:53:50;98283.00;;;-1.80
18219;BMP180;9234;49.344;11.120;2023-02-28T00:56:18;98283.00;;;-1.80
18219;BMP180;9234;49.344;11.120;2023-02-28T00:58:48;98271.00;;;-1.80
18219;BMP180;9234;49.344;11.120;2023-02-28T01:01:18;98272.00;;;-1.80
18219;BMP180;9234;49.344;11.120;2023-02-28T01:03:47;98283.00;;;-1.70
18219;BMP180;9234;49.344;11.120;2023-02-28T01:06:15;98271.00;;;-1.70
18219;BMP180;9234;49.344;11.120;2023-02-28T01:08:43;98280.00;;;-1.70
18219;BMP180;9234;49.344;11.120;2023-02-28T01:11:15;98256.00;;;-1.80
18219;BMP180;9234;49.344;11.120;2023-02-28T01:13:44;98278.00;;;-1.70
18219;BMP180;9234;49.344;11.120;2023-02-28T01:16:14;98256.00;;;-1.70
18219;BMP180;9234;49.344;11.120;2023-02-28T01:18:44;98271.00;;;-1.80
18219;BMP180;9234;49.344;11.120;2023-02-28T01:21:15;98258.00;;;-1.80
18219;BMP180;9234;49.344;11.120;2023-02-28T01:23:44;98272.00;;;-1.80
18219;BMP180;9234;49.344;11.120;2023-02-28T01:26:16;98251.00;;;-1.80
18219;BMP180;9234;49.344;11.120;2023-02-28T01:28:45;98255.00;;;-1.80
18219;BMP180;9234;49.344;11.120;2023-02-28T01:31:15;98253.00;;;-1.80
18219;BMP180;9234;49.344;11.120;2023-02-28T01:33:43;98265.00;;;-1.80
18219;BMP180;9234;49.344;11.120;2023-02-28T01:36:14;98259.00;;;-1.90
18219;BMP180;9234;49.344;11.120;2023-02-28T01:38:44;98254.00;;;-1.90
18219;BMP180;9234;49.344;11.120;2023-02-28T01:41:18;98259.00;;;-1.90
18219;BMP180;9234;49.344;11.120;2023-02-28T01:44:00;98259.00;;;-1.90
18219;BMP180;9234;49.344;11.120;2023-02-28T01:46:35;98267.00;;;-1.90
18219;BMP180;9234;49.344;11.120;2023-02-28T01:49:10;98261.00;;;-1.90
18219;BMP180;9234;49.344;11.120;2023-02-28T01:51:44;98247.00;;;-2.00
18219;BMP180;9234;49.344;11.120;2023-02-28T01:54:23;98265.00;;;-2.00
18219;BMP180;9234;49.344;11.120;2023-02-28T01:56:56;98242.00;;;-2.00
18219;BMP180;9234;49.344;11.120;2023-02-28T01:59:33;98241.00;;;-2.00
18219;BMP180;9234;49.344;11.120;2023-02-28T02:02:03;98265.00;;;-2.00
18219;BMP180;9234;49.344;11.120;2023-02-28T02:04:38;98246.00;;;-2.10
18219;BMP180;9234;49.344;11.120;2023-02-28T02:07:07;98232.00;;;-2.10
18219;BMP180;9234;49.344;11.120;2023-02-28T02:09:36;98243.00;;;-2.10
18219;BMP180;9234;49.344;11.120;2023-02-28T02:12:15;98236.00;;;-2.10
18219;BMP180;9234;49.344;11.120;2023-02-28T02:15:00;98232.00;;;-2.10
18219;BMP180;9234;49.344;11.120;2023-02-28T02:17:39;98240.00;;;-2.10
18219;BMP180;9234;49.344;11.120;2023-02-28T02:27:26;98230.00;;;-2.20
18219;BMP180;9234;49.344;11.120;2023-02-28T02:30:33;98225.00;;;-2.30
18219;BMP180;9234;49.344;11.120;2023-02-28T02:36:40;98215.00;;;-2.30
18219;BMP180;9234;49.344;11.120;2023-02-28T02:39:20;98221.00;;;-2.30
18219;BMP180;9234;49.344;11.120;2023-02-28T02:41:53;98216.00;;;-2.30
18219;BMP180;9234;49.344;11.120;2023-02-28T02:44:24;98219.00;;;-2.30
18219;BMP180;9234;49.344;11.120;2023-02-28T02:47:02;98224.00;;;-2.30
18219;BMP180;9234;49.344;11.120;2023-02-28T02:49:35;98224.00;;;-2.30
18219;BMP180;9234;49.344;11.120;2023-02-28T02:52:09;98217.00;;;-2.30
18219;BMP180;9234;49.344;11.120;2023-02-28T02:54:43;98225.00;;;-2.30
18219;BMP180;9234;49.344;11.120;2023-02-28T02:57:21;98219.00;;;-2.30
18219;BMP180;9234;49.344;11.120;2023-02-28T02:59:55;98237.00;;;-2.30
18219;BMP180;9234;49.344;11.120;2023-02-28T03:02:25;98235.00;;;-2.30
18219;BMP180;9234;49.344;11.120;2023-02-28T03:05:00;98236.00;;;-2.40
18219;BMP180;9234;49.344;11.120;2023-02-28T03:07:30;98231.00;;;-2.40
18219;BMP180;9234;49.344;11.120;2023-02-28T03:09:58;98231.00;;;-2.40
18219;BMP180;9234;49.344;11.120;2023-02-28T03:12:40;98234.00;;;-2.40
18219;BMP180;9234;49.344;11.120;2023-02-28T03:15:18;98212.00;;;-2.40
18219;BMP180;9234;49.344;11.120;2023-02-28T03:18:04;98223.00;;;-2.40
18219;BMP180;9234;49.344;11.120;2023-02-28T03:20:44;98221.00;;;-2.40
18219;BMP180;9234;49.344;11.120;2023-02-28T03:23:23;98240.00;;;-2.40
18219;BMP180;9234;49.344;11.120;2023-02-28T03:26:02;98230.00;;;-2.40
18219;BMP180;9234;49.344;11.120;2023-02-28T03:28:41;98225.00;;;-2.40
18219;BMP180;9234;49.344;11.120;2023-02-28T03:31:19;98230.00;;;-2.40
18219;BMP180;9234;49.344;11.120;2023-02-28T03:34:00;98233.00;;;-2.40
18219;BMP180;9234;49.344;11.120;2023-02-28T03:36:34;98235.00;;;-2.40
18219;BMP180;9234;49.344;11.120;2023-02-28T03:39:18;98240.00;;;-2.40
18219;BMP180;9234;49.344;11.120;2023-02-28T03:41:53;98236.00;;;-2.40
18219;BMP180;9234;49.344;11.120;2023-02-28T03:44:28;98240.00;;;-2.40
18219;BMP180;9234;49.344;11.120;2023-02-28T03:47:03;98238.00;;;-2.40
18219;BMP180;9234;49.344;11.120;2023-02-28T03:49:40;98229.00;;;-2.40
18219;BMP180;9234;49.344;11.120;2023-02-28T03:52:10;98233.00;;;-2.40
18219;BMP180;9234;49.344;11.120;2023-02-28T03:54:45;98234.00;;;-2.40
18219;BMP180;9234;49.344;11.120;2023-02-28T03:57:23;98240.00;;;-2.40
18219;BMP180;9234;49.344;11.120;2023-02-28T03:59:59;98235.00;;;-2.40
18219;BMP180;9234;49.344;11.120;2023-02-28T04:02:38;98235.00;;;-2.40
18219;BMP180;9234;49.344;11.120;2023-02-28T04:05:08;98233.00;;;-2.50
18219;BMP180;9234;49.344;11.120;2023-02-28T04:07:37;98255.00;;;-2.50
18219;BMP180;9234;49.344;11.120;2023-02-28T04:10:08;98243.00;;;-2.50
18219;BMP180;9234;49.344;11.120;2023-02-28T04:12:37;98238.00;;;-2.50
18219;BMP180;9234;49.344;11.120;2023-02-28T04:15:07;98242.00;;;-2.50
18219;BMP180;9234;49.344;11.120;2023-02-28T04:17:35;98238.00;;;-2.50
18219;BMP180;9234;49.344;11.120;2023-02-28T04:20:05;98235.00;;;-2.50
18219;BMP180;9234;49.344;11.120;2023-02-28T04:22:36;98259.00;;;-2.50
18219;BMP180;9234;49.344;11.120;2023-02-28T04:25:08;98250.00;;;-2.50
18219;BMP180;9234;49.344;11.120;2023-02-28T04:27:36;98246.00;;;-2.40
18219;BMP180;9234;49.344;11.120;2023-02-28T04:30:06;98244.00;;;-2.40
18219;BMP180;9234;49.344;11.120;2023-02-28T04:32:34;98251.00;;;-2.40
18219;BMP180;9234;49.344;11.120;2023-02-28T04:35:04;98246.00;;;-2.40
18219;BMP180;9234;49.344;11.120;2023-02-28T04:37:32;98244.00;;;-2.40
18219;BMP180;9234;49.344;11.120;2023-02-28T04:40:02;98260.00;;;-2.30
18219;BMP180;9234;49.344;11.120;2023-02-28T04:42:34;98258.00;;;-2.30
18219;BMP180;9234;49.344;11.120;2023-02-28T04:45:04;98246.00;;;-2.30
18219;BMP180;9234;49.344;11.120;2023-02-28T04:47:32;98244.00;;;-2.30
18219;BMP180;9234;49.344;11.120;2023-02-28T04:50:00;98251.00;;;-2.30
18219;BMP180;9234;49.344;11.120;2023-02-28T04:52:29;98260.00;;;-2.30
18219;BMP180;9234;49.344;11.120;2023-02-28T04:54:57;98250.00;;;-2.30
18219;BMP180;9234;49.344;11.120;2023-02-28T04:57:25;98250.00;;;-2.30
18219;BMP180;9234;49.344;11.120;2023-02-28T04:59:54;98250.00;;;-2.30
18219;BMP180;9234;49.344;11.120;2023-02-28T05:02:23;98244.00;;;-2.30
18219;BMP180;9234;49.344;11.120;2023-02-28T05:04:51;98244.00;;;-2.30
18219;BMP180;9234;49.344;11.120;2023-02-28T05:07:19;98249.00;;;-2.30
18219;BMP180;9234;49.344;11.120;2023-02-28T05:09:48;98249.00;;;-2.30
18219;BMP180;9234;49.344;11.120;2023-02-28T05:12:16;98263.00;;;-2.30
18219;BMP180;9234;49.344;11.120;2023-02-28T05:14:44;98253.00;;;-2.30
18219;BMP180;9234;49.344;11.120;2023-02-28T05:17:13;98259.00;;;-2.40
18219;BMP180;9234;49.344;11.120;2023-02-28T05:19:42;98259.00;;;-2.40
18219;BMP180;9234;49.344;11.120;2023-02-28T05:22:14;98271.00;;;-2.40
18219;BMP180;9234;49.344;11.120;2023-02-28T05:24:43;98263.00;;;-2.40
18219;BMP180;9234;49.344;11.120;2023-02-28T05:27:11;98262.00;;;-2.40
18219;BMP180;9234;49.344;11.120;2023-02-28T05:29:39;98265.00;;;-2.40
18219;BMP180;9234;49.344;11.120;2023-02-28T05:32:12;98265.00;;;-2.40
18219;BMP180;9234;49.344;11.120;2023-02-28T05:34:41;98271.00;;;-2.50
18219;BMP180;9234;49.344;11.120;2023-02-28T05:37:12;98268.00;;;-2.50
18219;BMP180;9234;49.344;11.120;2023-02-28T05:39:41;98275.00;;;-2.50
18219;BMP180;9234;49.344;11.120;2023-02-28T05:42:09;98269.00;;;-2.50
18219;BMP180;9234;49.344;11.120;2023-02-28T05:44:38;98280.00;;;-2.50
18219;BMP180;9234;49.344;11.120;2023-02-28T05:47:06;98275.00;;;-2.50
18219;BMP180;9234;49.344;11.120;2023-02-28T05:49:36;98274.00;;;-2.60
18219;BMP180;9234;49.344;11.120;2023-02-28T05:52:04;98273.00;;;-2.60
18219;BMP180;9234;49.344;11.120;2023-02-28T05:54:33;98265.00;;;-2.60
18219;BMP180;9234;49.344;11.120;2023-02-28T05:57:01;98274.00;;;-2.60
18219;BMP180;9234;49.344;11.120;2023-02-28T05:59:36;98280.00;;;-2.70
18219;BMP180;9234;49.344;11.120;2023-02-28T06:02:10;98265.00;;;-2.70
18219;BMP180;9234;49.344;11.120;2023-02-28T06:04:42;98279.00;;;-2.70
18219;BMP180;9234;49.344;11.120;2023-02-28T06:07:10;98271.00;;;-2.70
18219;BMP180;9234;49.344;11.120;2023-02-28T06:09:38;98279.00;;;-2.70
18219;BMP180;9234;49.344;11.120;2023-02-28T06:12:07;98289.00;;;-2.70
18219;BMP180;9234;49.344;11.120;2023-02-28T06:14:36;98260.00;;;-2.70
18219;BMP180;9234;49.344;11.120;2023-02-28T06:17:05;98268.00;;;-2.70
18219;BMP180;9234;49.344;11.120;2023-02-28T06:19:33;98274.00;;;-2.70
18219;BMP180;9234;49.344;11.120;2023-02-28T06:22:02;98283.00;;;-2.70
18219;BMP180;9234;49.344;11.120;2023-02-28T06:24:31;98284.00;;;-2.70
18219;BMP180;9234;49.344;11.120;2023-02-28T06:26:59;98282.00;;;-2.60
18219;BMP180;9234;49.344;11.120;2023-02-28T06:29:31;98292.00;;;-2.60
18219;BMP180;9234;49.344;11.120;2023-02-28T06:32:00;98282.00;;;-2.50
18219;BMP180;9234;49.344;11.120;2023-02-28T06:34:29;98292.00;;;-2.40
18219;BMP180;9234;49.344;11.120;2023-02-28T06:36:57;98284.00;;;-2.40
18219;BMP180;9234;49.344;11.120;2023-02-28T06:39:31;98293.00;;;-2.30
18219;BMP180;9234;49.344;11.120;2023-02-28T06:41:59;98294.00;;;-2.30
18219;BMP180;9234;49.344;11.120;2023-02-28T06:44:27;98307.00;;;-2.20
18219;BMP180;9234;49.344;11.120;2023-02-28T06:47:03;98292.00;;;-2.10
18219;BMP180;9234;49.344;11.120;2023-02-28T06:49:34;98304.00;;;-2.00
18219;BMP180;9234;49.344;11.120;2023-02-28T06:52:03;98295.00;;;-2.00
18219;BMP180;9234;49.344;11.120;2023-02-28T06:54:33;98285.00;;;-1.90
18219;BMP180;9234;49.344;11.120;2023-02-28T06:57:01;98278.00;;;-1.80
18219;BMP180;9234;49.344;11.120;2023-02-28T06:59:29;98302.00;;;-1.70
18219;BMP180;9234;49.344;11.120;2023-02-28T07:01:58;98314.00;;;-1.60
18219;BMP180;9234;49.344;11.120;2023-02-28T07:04:27;98292.00;;;-1.50
18219;BMP180;9234;49.344;11.120;2023-02-28T07:06:55;98302.00;;;-1.50
18219;BMP180;9234;49.344;11.120;2023-02-28T07:09:24;98299.00;;;-1.30
18219;BMP180;9234;49.344;11.120;2023-02-28T07:11:58;98327.00;;;-1.20
18219;BMP180;9234;49.344;11.120;2023-02-28T07:14:27;98312.00;;;-1.10
18219;BMP180;9234;49.344;11.120;2023-02-28T07:16:55;98314.00;;;-1.00
18219;BMP180;9234;49.344;11.120;2023-02-28T07:19:23;98307.00;;;-0.90
18219;BMP180;9234;49.344;11.120;2023-02-28T07:21:52;98314.00;;;-0.80
18219;BMP180;9234;49.344;11.120;2023-02-28T07:24:21;98324.00;;;-0.70
18219;BMP180;9234;49.344;11.120;2023-02-28T07:26:52;98312.00;;;-0.60
18219;BMP180;9234;49.344;11.120;2023-02-28T07:29:22;98322.00;;;-0.40
18219;BMP180;9234;49.344;11.120;2023-02-28T07:31:50;98310.00;;;-0.30
18219;BMP180;9234;49.344;11.120;2023-02-28T07:34:20;98305.00;;;-0.20
18219;BMP180;9234;49.344;11.120;2023-02-28T07:36:49;98321.00;;;-0.10
18219;BMP180;9234;49.344;11.120;2023-02-28T07:39:21;98314.00;;;0.00
18219;BMP180;9234;49.344;11.120;2023-02-28T07:41:49;98308.00;;;0.10
18219;BMP180;9234;49.344;11.120;2023-02-28T07:44:17;98310.00;;;0.20
18219;BMP180;9234;49.344;11.120;2023-02-28T07:46:47;98315.00;;;0.30
18219;BMP180;9234;49.344;11.120;2023-02-28T07:49:15;98320.00;;;0.40
18219;BMP180;9234;49.344;11.120;2023-02-28T07:51:44;98318.00;;;0.50
18219;BMP180;9234;49.344;11.120;2023-02-28T07:54:12;98321.00;;;0.60
18219;BMP180;9234;49.344;11.120;2023-02-28T07:56:40;98318.00;;;0.70
18219;BMP180;9234;49.344;11.120;2023-02-28T07:59:08;98315.00;;;0.80
18219;BMP180;9234;49.344;11.120;2023-02-28T08:01:36;98314.00;;;0.90
18219;BMP180;9234;49.344;11.120;2023-02-28T08:04:06;98335.00;;;0.90
18219;BMP180;9234;49.344;11.120;2023-02-28T08:06:34;98315.00;;;1.00
18219;BMP180;9234;49.344;11.120;2023-02-28T08:09:03;98326.00;;;1.10
18219;BMP180;9234;49.344;11.120;2023-02-28T08:11:31;98303.00;;;1.10
18219;BMP180;9234;49.344;11.120;2023-02-28T08:13:59;98318.00;;;1.20
18219;BMP180;9234;49.344;11.120;2023-02-28T08:16:27;98321.00;;;1.30
18219;BMP180;9234;49.344;11.120;2023-02-28T08:18:56;98316.00;;;1.40
18219;BMP180;9234;49.344;11.120;2023-02-28T08:21:25;98322.00;;;1.40
18219;BMP180;9234;49.344;11.120;2023-02-28T08:23:54;98318.00;;;1.50
18219;BMP180;9234;49.344;11.120;2023-02-28T08:26:23;98326.00;;;1.50
18219;BMP180;9234;49.344;11.120;2023-02-28T08:28:52;98326.00;;;1.60
18219;BMP180;9234;49.344;11.120;2023-02-28T08:31:23;98323.00;;;1.60
18219;BMP180;9234;49.344;11.120;2023-02-28T08:33:51;98339.00;;;1.70
18219;BMP180;9234;49.344;11.120;2023-02-28T08:36:20;98330.00;;;1.70
18219;BMP180;9234;49.344;11.120;2023-02-28T08:38:49;98328.00;;;1.80
18219;BMP180;9234;49.344;11.120;2023-02-28T08:41:18;98341.00;;;1.90
18219;BMP180;9234;49.344;11.120;2023-02-28T08:43:46;98334.00;;;1.90
18219;BMP180;9234;49.344;11.120;2023-02-28T08:46:14;98321.00;;;2.00
18219;BMP180;9234;49.344;11.120;2023-02-28T08:48:43;98327.00;;;2.10
18219;BMP180;9234;49.344;11.120;2023-02-28T08:51:13;98337.00;;;2.20
18219;BMP180;9234;49.344;11.120;2023-02-28T08:53:43;98326.00;;;2.30
18219;BMP180;9234;49.344;11.120;2023-02-28T08:56:14;98317.00;;;2.40
18219;BMP180;9234;49.344;11.120;2023-02-28T08:58:45;98335.00;;;2.40
18219;BMP180;9234;49.344;11.120;2023-02-28T09:01:19;98329.00;;;2.50
18219;BMP180;9234;49.344;11.120;2023-02-28T09:03:49;98322.00;;;2.50
18219;BMP180;9234;49.344;11.120;2023-02-28T09:06:20;98330.00;;;2.60
18219;BMP180;9234;49.344;11.120;2023-02-28T09:08:48;98337.00;;;2.60
18219;BMP180;9234;49.344;11.120;2023-02-28T09:11:19;98321.00;;;2.70
18219;BMP180;9234;49.344;11.120;2023-02-28T09:13:47;98319.00;;;2.80
18219;BMP180;9234;49.344;11.120;2023-02-28T09:16:16;98323.00;;;2.90
18219;BMP180;9234;49.344;11.120;2023-02-28T09:18:45;98339.00;;;3.10
18219;BMP180;9234;49.344;11.120;2023-02-28T09:21:17;98320.00;;;3.20
18219;BMP180;9234;49.344;11.120;2023-02-28T09:23:48;98324.00;;;3.30
18219;BMP180;9234;49.344;11.120;2023-02-28T09:26:21;98324.00;;;3.50
18219;BMP180;9234;49.344;11.120;2023-02-28T09:28:51;98327.00;;;3.60
18219;BMP180;9234;49.344;11.120;2023-02-28T09:31:25;98327.00;;;3.70
18219;BMP180;9234;49.344;11.120;2023-02-28T09:33:57;98319.00;;;3.80
18219;BMP180;9234;49.344;11.120;2023-02-28T09:36:27;98323.00;;;3.90
18219;BMP180;9234;49.344;11.120;2023-02-28T09:39:10;98320.00;;;4.00
18219;BMP180;9234;49.344;11.120;2023-02-28T09:41:43;98330.00;;;4.10
18219;BMP180;9234;49.344;11.120;2023-02-28T09:44:24;98333.00;;;4.20
18219;BMP180;9234;49.344;11.120;2023-02-28T09:46:59;98334.00;;;4.30
18219;BMP180;9234;49.344;11.120;2023-02-28T09:49:37;98324.00;;;4.40
18219;BMP180;9234;49.344;11.120;2023-02-28T09:52:12;98337.00;;;4.50
18219;BMP180;9234;49.344;11.120;2023-02-28T09:54:42;98326.00;;;4.60
18219;BMP180;9234;49.344;11.120;2023-02-28T09:57:19;98335.00;;;4.70
18219;BMP180;9234;49.344;11.120;2023-02-28T10:00:03;98314.00;;;4.80
18219;BMP180;9234;49.344;11.120;2023-02-28T10:03:04;98331.00;;;5.00
18219;BMP180;9234;49.344;11.120;2023-02-28T10:05:38;98331.00;;;5.10
18219;BMP180;9234;49.344;11.120;2023-02-28T10:08:15;98337.00;;;5.20
18219;BMP180;9234;49.344;11.120;2023-02-28T10:10:48;98327.00;;;5.30
18219;BMP180;9234;49.344;11.120;2023-02-28T10:13:27;98326.00;;;5.30
18219;BMP180;9234;49.344;11.120;2023-02-28T10:16:03;98325.00;;;5.30
18219;BMP180;9234;49.344;11.120;2023-02-28T10:18:45;98344.00;;;5.40
18219;BMP180;9234;49.344;11.120;2023-02-28T10:21:21;98334.00;;;5.60
18219;BMP180;9234;49.344;11.120;2023-02-28T10:24:02;98339.00;;;5.70
18219;BMP180;9234;49.344;11.120;2023-02-28T10:26:32;98332.00;;;5.70
18219;BMP180;9234;49.344;11.120;2023-02-28T10:29:03;98336.00;;;5.80
18219;BMP180;9234;49.344;11.120;2023-02-28T10:31:31;98319.00;;;5.90
18219;BMP180;9234;49.344;11.120;2023-02-28T10:34:00;98324.00;;;6.00
18219;BMP180;9234;49.344;11.120;2023-02-28T10:36:30;98332.00;;;6.00
18219;BMP180;9234;49.344;11.120;2023-02-28T10:39:01;98323.00;;;6.10
18219;BMP180;9234;49.344;11.120;2023-02-28T10:41:31;98325.00;;;6.20
18219;BMP180;9234;49.344;11.120;2023-02-28T10:44:21;98336.00;;;6.30
18219;BMP180;9234;49.344;11.120;2023-02-28T10:46:51;98335.00;;;6.40
18219;BMP180;9234;49.344;11.120;2023-02-28T10:49:23;98323.00;;;6.50
18219;BMP180;9234;49.344;11.120;2023-02-28T10:51:54;98334.00;;;6.60
18219;BMP180;9234;49.344;11.120;2023-02-28T10:54:30;98330.00;;;6.80
18219;BMP180;9234;49.344;11.120;2023-02-28T10:57:18;98333.00;;;7.10
18219;BMP180;9234;49.344;11.120;2023-02-28T10:59:53;98321.00;;;7.20
18219;BMP180;9234;49.344;11.120;2023-02-28T11:02:36;98333.00;;;7.40
18219;BMP180;9234;49.344;11.120;2023-02-28T11:05:28;98320.00;;;7.50
18219;BMP180;9234;49.344;11.120;2023-02-28T11:08:05;98326.00;;;7.70
18219;BMP180;9234;49.344;11.120;2023-02-28T11:10:34;98309.00;;;7.70
18219;BMP180;9234;49.344;11.120;2023-02-28T11:13:03;98323.00;;;7.80
18219;BMP180;9234;49.344;11.120;2023-02-28T11:15:35;98323.00;;;7.80
18219;BMP180;9234;49.344;11.120;2023-02-28T11:18:22;98326.00;;;7.90
18219;BMP180;9234;49.344;11.120;2023-02-28T11:20:55;98332.00;;;8.10
18219;BMP180;9234;49.344;11.120;2023-02-28T11:23:27;98312.00;;;8.30
18219;BMP180;9234;49.344;11.120;2023-02-28T11:26:00;98329.00;;;8.40
18219;BMP180;9234;49.344;11.120;2023-02-28T11:28:31;98334.00;;;8.50
18219;BMP180;9234;49.344;11.120;2023-02-28T11:31:06;98316.00;;;8.40
18219;BMP180;9234;49.344;11.120;2023-02-28T11:33:45;98321.00;;;8.40
18219;BMP180;9234;49.344;11.120;2023-02-28T11:36:19;98329.00;;;8.40
18219;BMP180;9234;49.344;11.120;2023-02-28T11:38:49;98325.00;;;8.50
18219;BMP180;9234;49.344;11.120;2023-02-28T11:41:54;98328.00;;;8.70
18219;BMP180;9234;49.344;11.120;2023-02-28T11:44:43;98318.00;;;8.80
18219;BMP180;9234;49.344;11.120;2023-02-28T11:47:24;98304.00;;;8.90
18219;BMP180;9234;49.344;11.120;2023-02-28T11:50:18;98310.00;;;9.20
18219;BMP180;9234;49.344;11.120;2023-02-28T11:52:53;98310.00;;;9.30
18219;BMP180;9234;49.344;11.120;2023-02-28T11:55:27;98312.00;;;9.50
18219;BMP180;9234;49.344;11.120;2023-02-28T11:58:24;98306.00;;;9.90
18219;BMP180;9234;49.344;11.120;2023-02-28T12:01:24;98310.00;;;10.30
18219;BMP180;9234;49.344;11.120;2023-02-28T12:04:15;98309.00;;;10.60
18219;BMP180;9234;49.344;11.120;2023-02-28T12:06:57;98308.00;;;10.90
18219;BMP180;9234;49.344;11.120;2023-02-28T12:09:49;98299.00;;;11.20
18219;BMP180;9234;49.344;11.120;2023-02-28T12:12:39;98306.00;;;11.50
18219;BMP180;9234;49.344;11.120;2023-02-28T12:15:36;98309.00;;;11.70
18219;BMP180;9234;49.344;11.120;2023-02-28T12:18:37;98312.00;;;11.90
18219;BMP180;9234;49.344;11.120;2023-02-28T12:21:26;98296.00;;;12.20
18219;BMP180;9234;49.344;11.120;2023-02-28T12:24:17;98308.00;;;12.50
18219;BMP180;9234;49.344;11.120;2023-02-28T12:26:51;98301.00;;;12.80
18219;BMP180;9234;49.344;11.120;2023-02-28T12:29:25;98306.00;;;13.20
18219;BMP180;9234;49.344;11.120;2023-02-28T12:32:01;98301.00;;;13.70
18219;BMP180;9234;49.344;11.120;2023-02-28T12:34:37;98296.00;;;14.10
18219;BMP180;9234;49.344;11.120;2023-02-28T12:37:16;98279.00;;;14.60
18219;BMP180;9234;49.344;11.120;2023-02-28T12:39:50;98289.00;;;14.90
18219;BMP180;9234;49.344;11.120;2023-02-28T12:42:27;98288.00;;;15.10
18219;BMP180;9234;49.344;11.120;2023-02-28T12:45:01;98281.00;;;15.40
18219;BMP180;9234;49.344;11.120;2023-02-28T12:47:30;98287.00;;;15.90
18219;BMP180;9234;49.344;11.120;2023-02-28T12:50:04;98285.00;;;16.30
18219;BMP180;9234;49.344;11.120;2023-02-28T12:52:47;98294.00;;;16.60
18219;BMP180;9234;49.344;11.120;2023-02-28T12:55:28;98285.00;;;16.90
18219;BMP180;9234;49.344;11.120;2023-02-28T12:58:07;98284.00;;;16.90
18219;BMP180;9234;49.344;11.120;2023-02-28T13:00:49;98285.00;;;17.00
18219;BMP180;9234;49.344;11.120;2023-02-28T13:03:52;98286.00;;;17.40
18219;BMP180;9234;49.344;11.120;2023-02-28T13:06:49;98283.00;;;17.80
18219;BMP180;9234;49.344;11.120;2023-02-28T13:09:22;98286.00;;;18.00
18219;BMP180;9234;49.344;11.120;2023-02-28T13:11:51;98288.00;;;18.30
18219;BMP180;9234;49.344;11.120;2023-02-28T13:14:25;98290.00;;;18.30
18219;BMP180;9234;49.344;11.120;2023-02-28T13:17:03;98291.00;;;18.30
18219;BMP180;9234;49.344;11.120;2023-02-28T13:19:34;98287.00;;;18.50
18219;BMP180;9234;49.344;11.120;2023-02-28T13:22:05;98294.00;;;18.60
18219;BMP180;9234;49.344;11.120;2023-02-28T13:24:48;98303.00;;;18.30
18219;BMP180;9234;49.344;11.120;2023-02-28T13:27:35;98287.00;;;18.10
18219;BMP180;9234;49.344;11.120;2023-02-28T13:33:29;98288.00;;;18.50
18219;BMP180;9234;49.344;11.120;2023-02-28T13:36:12;98293.00;;;18.40
18219;BMP180;9234;49.344;11.120;2023-02-28T13:38:54;98281.00;;;18.20
18219;BMP180;9234;49.344;11.120;2023-02-28T13:41:48;98287.00;;;18.30
18219;BMP180;9234;49.344;11.120;2023-02-28T13:44:19;98286.00;;;18.50
18219;BMP180;9234;49.344;11.120;2023-02-28T13:47:28;98285.00;;;18.60
18219;BMP180;9234;49.344;11.120;2023-02-28T13:50:28;98292.00;;;18.70
18219;BMP180;9234;49.344;11.120;2023-02-28T13:53:42;98289.00;;;19.00
18219;BMP180;9234;49.344;11.120;2023-02-28T13:56:46;98291.00;;;19.20
18219;BMP180;9234;49.344;11.120;2023-02-28T13:59:27;98285.00;;;19.00
18219;BMP180;9234;49.344;11.120;2023-02-28T14:02:24;98292.00;;;18.80
18219;BMP180;9234;49.344;11.120;2023-02-28T14:05:04;98281.00;;;18.60
18219;BMP180;9234;49.344;11.120;2023-02-28T14:07:43;98273.00;;;18.20
18219;BMP180;9234;49.344;11.120;2023-02-28T14:10:26;98280.00;;;17.90
18219;BMP180;9234;49.344;11.120;2023-02-28T14:13:01;98284.00;;;17.30
18219;BMP180;9234;49.344;11.120;2023-02-28T14:15:54;98289.00;;;16.70
18219;BMP180;9234;49.344;11.120;2023-02-28T14:18:31;98284.00;;;16.40
18219;BMP180;9234;49.344;11.120;2023-02-28T14:21:16;98283.00;;;16.50
18219;BMP180;9234;49.344;11.120;2023-02-28T14:27:37;98269.00;;;16.30
18219;BMP180;9234;49.344;11.120;2023-02-28T14:30:40;98273.00;;;16.00
18219;BMP180;9234;49.344;11.120;2023-02-28T14:33:39;98274.00;;;15.60
18219;BMP180;9234;49.344;11.120;2023-02-28T14:36:19;98285.00;;;15.10
18219;BMP180;9234;49.344;11.120;2023-02-28T14:38:52;98281.00;;;15.10
18219;BMP180;9234;49.344;11.120;2023-02-28T14:41:31;98270.00;;;15.30
18219;BMP180;9234;49.344;11.120;2023-02-28T14:44:12;98280.00;;;15.10
18219;BMP180;9234;49.344;11.120;2023-02-28T14:46:45;98281.00;;;15.00
18219;BMP180;9234;49.344;11.120;2023-02-28T14:49:19;98275.00;;;15.10
18219;BMP180;9234;49.344;11.120;2023-02-28T14:51:50;98283.00;;;15.10
18219;BMP180;9234;49.344;11.120;2023-02-28T14:54:22;98271.00;;;15.20
18219;BMP180;9234;49.344;11.120;2023-02-28T14:56:51;98275.00;;;15.30
18219;BMP180;9234;49.344;11.120;2023-02-28T14:59:29;98273.00;;;15.40
18219;BMP180;9234;49.344;11.120;2023-02-28T15:02:19;98269.00;;;15.50
18219;BMP180;9234;49.344;11.120;2023-02-28T15:04:57;98261.00;;;15.70
18219;BMP180;9234;49.344;11.120;2023-02-28T15:07:26;98261.00;;;15.80
18219;BMP180;9234;49.344;11.120;2023-02-28T15:10:13;98265.00;;;16.30